Time;durP1;ratioP1;P1;durP2;ratioP2;P2;SDS_P1;SDS_P2;PMS_P1;PMS_P2;Temp;Humidity;BMP_temperature;BMP_pressure;BME280_temperature;BME280_humidity;BME280_pressure;Samples;Min_cycle;Max_cycle;Signal;HPM_P1;HPM_P2
2021/08/21 00:00:54;;;;;;;6.00;4.77;;;16.70;99.90;;;;;;4965357;28;20850;-75
2021/08/21 00:03:20;;;;;;;5.17;4.77;;;16.70;99.90;;;;;;4960790;28;20431;-75
2021/08/21 00:05:48;;;;;;;8.10;4.70;;;16.70;99.90;;;;;;4956214;28;20462;-75
2021/08/21 00:08:14;;;;;;;5.73;5.13;;;16.70;99.90;;;;;;4966167;28;20465;-74
2021/08/21 00:10:41;;;;;;;6.70;5.10;;;16.70;99.90;;;;;;4973571;28;20471;-75
2021/08/21 00:13:09;;;;;;;8.53;4.70;;;16.70;99.90;;;;;;4969465;28;20459;-75
2021/08/21 00:15:36;;;;;;;4.70;4.17;;;16.70;99.90;;;;;;4973615;28;20465;-75
2021/08/21 00:18:04;;;;;;;6.10;4.70;;;16.60;99.90;;;;;;4968855;28;20460;-76
2021/08/21 00:20:30;;;;;;;5.30;4.80;;;16.60;99.90;;;;;;4957295;28;20480;-75
2021/08/21 00:22:57;;;;;;;4.97;4.50;;;16.60;99.90;;;;;;4969264;28;20824;-75
2021/08/21 00:25:24;;;;;;;6.43;4.73;;;16.60;99.90;;;;;;4971282;28;20468;-76
2021/08/21 00:27:51;;;;;;;5.20;4.70;;;16.60;99.90;;;;;;4973342;28;20495;-74
2021/08/21 00:30:19;;;;;;;6.97;3.97;;;16.50;99.90;;;;;;4972371;28;20470;-75
2021/08/21 00:32:46;;;;;;;4.27;3.87;;;16.50;99.90;;;;;;4957971;28;20459;-75
2021/08/21 00:35:14;;;;;;;6.07;4.37;;;16.50;99.90;;;;;;4961211;28;20461;-75
2021/08/21 00:37:41;;;;;;;4.63;4.10;;;16.50;99.90;;;;;;4972944;28;20457;-75
2021/08/21 00:40:09;;;;;;;6.93;4.90;;;16.50;99.90;;;;;;4970449;28;20469;-74
2021/08/21 00:42:36;;;;;;;4.67;4.20;;;16.50;99.90;;;;;;4966226;28;20472;-76
2021/08/21 00:45:03;;;;;;;4.80;3.87;;;16.50;99.90;;;;;;4973322;28;20460;-74
2021/08/21 00:47:32;;;;;;;4.87;4.33;;;16.50;99.90;;;;;;4960404;28;20488;-76
2021/08/21 00:49:59;;;;;;;4.73;4.23;;;16.40;99.90;;;;;;4962506;28;20464;-75
2021/08/21 00:52:30;;;;;;;4.13;3.73;;;16.40;99.90;;;;;;4970954;28;20474;-75
2021/08/21 00:54:58;;;;;;;4.13;3.70;;;16.40;99.90;;;;;;4972492;28;20437;-75
2021/08/21 00:57:26;;;;;;;5.50;4.10;;;16.30;99.90;;;;;;4971432;28;20470;-76
2021/08/21 00:59:54;;;;;;;4.37;3.97;;;16.30;99.90;;;;;;4954350;28;20465;-75
2021/08/21 01:02:22;;;;;;;4.93;4.20;;;16.30;99.90;;;;;;4960806;28;20438;-75
2021/08/21 01:04:52;;;;;;;4.70;4.30;;;16.30;99.90;;;;;;4962832;28;20456;-75
2021/08/21 01:07:22;;;;;;;5.10;4.50;;;16.30;99.90;;;;;;4972776;28;20507;-75
2021/08/21 01:09:50;;;;;;;4.23;3.83;;;16.30;99.90;;;;;;4970476;28;20461;-75
2021/08/21 01:12:19;;;;;;;4.20;3.80;;;16.20;99.90;;;;;;4972706;28;20455;-75
2021/08/21 01:14:49;;;;;;;4.60;4.13;;;16.20;99.90;;;;;;4934638;28;20472;-75
2021/08/21 01:17:17;;;;;;;4.83;4.37;;;16.20;99.90;;;;;;4958256;28;20769;-74
2021/08/21 01:19:48;;;;;;;4.73;4.10;;;16.20;99.90;;;;;;4965774;28;20855;-75
2021/08/21 01:22:19;;;;;;;7.30;4.37;;;16.20;99.90;;;;;;4948367;28;20457;-75
2021/08/21 01:24:46;;;;;;;4.83;4.43;;;16.20;99.90;;;;;;4964227;28;20961;-75
2021/08/21 01:27:17;;;;;;;5.30;4.70;;;16.20;99.90;;;;;;4936080;28;20486;-76
2021/08/21 01:29:44;;;;;;;4.97;4.30;;;16.10;99.90;;;;;;4949370;28;20464;-75
2021/08/21 01:32:12;;;;;;;5.40;4.90;;;16.10;99.90;;;;;;4958910;28;20440;-76
2021/08/21 01:34:39;;;;;;;6.00;4.33;;;16.10;99.90;;;;;;4955000;28;20798;-75
2021/08/21 01:37:06;;;;;;;5.07;4.57;;;16.10;99.90;;;;;;4955760;28;20457;-75
2021/08/21 01:39:33;;;;;;;5.03;4.47;;;16.10;99.90;;;;;;4953473;29;20441;-75
2021/08/21 01:42:00;;;;;;;4.90;4.33;;;16.00;99.90;;;;;;4960458;28;20487;-74
2021/08/21 01:44:28;;;;;;;5.93;5.20;;;16.00;99.90;;;;;;4974068;28;20464;-75
2021/08/21 01:46:55;;;;;;;7.40;4.80;;;16.00;99.90;;;;;;4955462;28;22099;-75
2021/08/21 01:49:24;;;;;;;4.57;4.17;;;16.00;99.90;;;;;;4959457;28;20455;-74
2021/08/21 01:51:52;;;;;;;5.40;4.50;;;16.00;99.90;;;;;;4970969;28;20458;-75
2021/08/21 01:54:21;;;;;;;4.83;4.30;;;16.00;99.90;;;;;;4958340;28;20465;-75
2021/08/21 01:56:49;;;;;;;6.13;4.30;;;16.00;99.90;;;;;;4937883;28;20446;-75
2021/08/21 01:59:20;;;;;;;6.13;5.53;;;15.90;99.90;;;;;;4952616;28;20446;-75
2021/08/21 02:01:49;;;;;;;6.53;5.10;;;15.90;99.90;;;;;;4964579;28;20801;-75
2021/08/21 02:04:17;;;;;;;4.80;4.30;;;15.90;99.90;;;;;;4955724;28;20913;-76
2021/08/21 02:06:44;;;;;;;6.37;5.03;;;15.90;99.90;;;;;;4969478;28;20487;-75
2021/08/21 02:09:11;;;;;;;7.53;5.37;;;15.80;99.90;;;;;;4958134;28;20457;-76
2021/08/21 02:11:38;;;;;;;4.93;4.53;;;15.80;99.90;;;;;;4971447;28;20488;-75
2021/08/21 02:14:05;;;;;;;6.13;5.27;;;15.80;99.90;;;;;;4969943;28;20433;-75
2021/08/21 02:16:33;;;;;;;5.80;5.20;;;15.80;99.90;;;;;;4937510;28;20450;-75
2021/08/21 02:19:01;;;;;;;5.53;4.77;;;15.80;99.90;;;;;;4968370;28;20452;-75
2021/08/21 02:21:28;;;;;;;5.70;4.30;;;15.80;99.90;;;;;;4965619;28;20485;-75
2021/08/21 02:23:58;;;;;;;5.93;4.50;;;15.80;99.90;;;;;;4956961;28;21065;-74
2021/08/21 02:26:26;;;;;;;6.90;5.20;;;15.80;99.90;;;;;;4937829;28;20547;-74
2021/08/21 02:28:53;;;;;;;4.80;4.30;;;15.80;99.90;;;;;;4939554;28;20453;-75
2021/08/21 02:31:20;;;;;;;4.90;4.40;;;15.70;99.90;;;;;;4943939;28;20807;-75
2021/08/21 02:33:48;;;;;;;5.47;4.97;;;15.70;99.90;;;;;;4969635;28;20959;-75
2021/08/21 02:36:16;;;;;;;5.17;4.67;;;15.70;99.90;;;;;;4942510;28;20455;-75
2021/08/21 02:38:45;;;;;;;6.00;5.13;;;15.70;99.90;;;;;;4970251;28;20479;-75
2021/08/21 02:41:13;;;;;;;5.23;4.70;;;15.70;99.90;;;;;;4975993;28;20492;-75
2021/08/21 02:43:40;;;;;;;7.83;5.40;;;15.70;99.90;;;;;;4975821;28;20485;-75
2021/08/21 02:46:07;;;;;;;5.87;5.27;;;15.60;99.90;;;;;;4962967;28;20451;-75
2021/08/21 02:48:34;;;;;;;5.10;4.67;;;15.60;99.90;;;;;;4975179;28;20492;-75
2021/08/21 02:51:01;;;;;;;5.10;4.60;;;15.60;99.90;;;;;;4972746;28;20476;-75
2021/08/21 02:53:29;;;;;;;5.10;4.70;;;15.60;99.90;;;;;;4969331;28;20463;-74
2021/08/21 02:55:57;;;;;;;6.60;4.50;;;15.60;99.90;;;;;;4975650;28;20474;-76
2021/08/21 02:58:24;;;;;;;4.73;4.30;;;15.60;99.90;;;;;;4964519;28;20471;-75
2021/08/21 03:00:51;;;;;;;6.00;5.03;;;15.60;99.90;;;;;;4961658;28;20933;-76
2021/08/21 03:03:18;;;;;;;5.80;4.83;;;15.60;99.90;;;;;;4972939;28;22670;-74
2021/08/21 03:05:45;;;;;;;9.63;5.73;;;15.50;99.90;;;;;;4960600;28;21396;-74
2021/08/21 03:08:11;;;;;;;7.50;5.10;;;15.50;99.90;;;;;;4974835;28;20480;-75
2021/08/21 03:10:40;;;;;;;8.23;5.83;;;15.50;99.90;;;;;;4975030;28;20987;-75
2021/08/21 03:13:07;;;;;;;6.33;5.53;;;15.50;99.90;;;;;;4965839;28;21744;-75
2021/08/21 03:15:34;;;;;;;5.57;5.10;;;15.50;99.90;;;;;;4956838;28;21026;-75
2021/08/21 03:18:01;;;;;;;5.73;4.90;;;15.50;99.90;;;;;;4973647;28;20448;-75
2021/08/21 03:20:28;;;;;;;5.37;4.87;;;15.50;99.90;;;;;;4974420;28;20466;-74
2021/08/21 03:22:56;;;;;;;5.43;4.90;;;15.50;99.90;;;;;;4963627;28;20456;-74
2021/08/21 03:25:23;;;;;;;5.77;5.00;;;15.50;99.90;;;;;;4968844;28;20460;-76
2021/08/21 03:27:51;;;;;;;5.20;4.70;;;15.50;99.90;;;;;;4966777;28;21251;-76
2021/08/21 03:30:18;;;;;;;5.80;4.80;;;15.50;99.90;;;;;;4957623;28;20473;-75
2021/08/21 03:32:45;;;;;;;5.20;4.80;;;15.40;99.90;;;;;;4973135;28;20725;-75
2021/08/21 03:35:12;;;;;;;5.70;5.20;;;15.50;99.90;;;;;;4974384;28;20448;-75
2021/08/21 03:37:39;;;;;;;6.80;5.13;;;15.40;99.90;;;;;;4961688;28;20468;-75
2021/08/21 03:40:07;;;;;;;5.60;5.10;;;15.50;99.90;;;;;;4959512;28;20482;-75
2021/08/21 03:42:34;;;;;;;5.20;4.70;;;15.50;99.90;;;;;;4969745;28;20485;-75
2021/08/21 03:45:03;;;;;;;4.53;4.13;;;15.40;99.90;;;;;;4961939;28;20886;-75
2021/08/21 03:47:30;;;;;;;5.43;4.93;;;15.40;99.90;;;;;;4975476;28;20996;-75
2021/08/21 03:49:57;;;;;;;5.80;5.30;;;15.40;99.90;;;;;;4967004;28;20462;-75
2021/08/21 03:52:24;;;;;;;5.57;5.07;;;15.40;99.90;;;;;;4960282;28;20453;-75
2021/08/21 03:54:51;;;;;;;6.20;5.03;;;15.40;99.90;;;;;;4957265;28;20488;-75
2021/08/21 03:57:18;;;;;;;5.33;4.60;;;15.40;99.90;;;;;;4958623;28;20469;-75
2021/08/21 03:59:44;;;;;;;5.33;4.83;;;15.40;99.90;;;;;;4955304;28;20441;-75
2021/08/21 04:02:13;;;;;;;5.17;4.67;;;15.40;99.90;;;;;;4956198;28;20801;-75
2021/08/21 04:04:39;;;;;;;5.00;4.60;;;15.40;99.90;;;;;;4971800;28;20457;-75
2021/08/21 04:07:06;;;;;;;5.53;4.80;;;15.40;99.90;;;;;;4976210;28;20495;-75
2021/08/21 04:09:33;;;;;;;6.57;5.20;;;15.30;99.90;;;;;;4967099;28;20452;-75
2021/08/21 04:12:00;;;;;;;5.33;4.47;;;15.40;99.90;;;;;;4967146;28;20452;-76
2021/08/21 04:14:27;;;;;;;5.47;4.63;;;15.30;99.90;;;;;;4960391;28;20425;-74
2021/08/21 04:16:54;;;;;;;5.17;4.77;;;15.30;99.90;;;;;;4973262;28;20452;-76
2021/08/21 04:19:22;;;;;;;5.47;4.97;;;15.30;99.90;;;;;;4972626;28;20443;-75
2021/08/21 04:21:49;;;;;;;5.47;4.70;;;15.30;99.90;;;;;;4959331;28;20483;-74
2021/08/21 04:24:16;;;;;;;5.13;4.70;;;15.30;99.90;;;;;;4966898;28;20818;-76
2021/08/21 04:26:43;;;;;;;5.70;5.20;;;15.30;99.90;;;;;;4963537;28;20555;-75
2021/08/21 04:29:13;;;;;;;5.10;4.60;;;15.30;99.90;;;;;;4957104;28;20463;-75
2021/08/21 04:31:40;;;;;;;4.77;4.27;;;15.30;99.90;;;;;;4963900;28;20495;-75
2021/08/21 04:34:07;;;;;;;7.00;5.17;;;15.30;99.90;;;;;;4969629;28;20453;-74
2021/08/21 04:36:35;;;;;;;6.37;5.47;;;15.30;99.90;;;;;;4968566;28;20466;-75
2021/08/21 04:39:02;;;;;;;5.50;5.00;;;15.30;99.90;;;;;;4973656;28;20476;-76
2021/08/21 04:41:29;;;;;;;9.27;5.53;;;15.30;99.90;;;;;;4961238;28;20489;-75
2021/08/21 04:43:56;;;;;;;5.17;4.67;;;15.30;99.90;;;;;;4954911;28;20484;-75
2021/08/21 04:46:23;;;;;;;5.07;4.57;;;15.30;99.90;;;;;;4953306;28;20816;-75
2021/08/21 04:48:49;;;;;;;5.10;4.70;;;15.30;99.90;;;;;;4955531;28;20608;-75
2021/08/21 04:51:16;;;;;;;7.70;5.20;;;15.30;99.90;;;;;;4973210;28;20471;-76
2021/08/21 04:53:45;;;;;;;5.30;4.80;;;15.30;99.90;;;;;;4973592;28;20457;-76
2021/08/21 04:56:12;;;;;;;6.33;5.47;;;15.30;99.90;;;;;;4963937;28;20819;-75
2021/08/21 04:58:38;;;;;;;5.93;5.40;;;15.30;99.90;;;;;;4958875;28;20910;-76
2021/08/21 05:01:05;;;;;;;5.63;5.13;;;15.40;99.90;;;;;;4962908;28;20961;-76
2021/08/21 05:03:32;;;;;;;5.73;5.23;;;15.40;99.90;;;;;;4972890;28;20814;-75
2021/08/21 05:05:59;;;;;;;7.00;5.23;;;15.40;99.90;;;;;;4969151;28;20984;-75
2021/08/21 05:08:26;;;;;;;5.43;4.93;;;15.40;99.90;;;;;;4958230;28;20500;-75
2021/08/21 05:10:54;;;;;;;5.20;4.80;;;15.40;99.90;;;;;;4958408;28;20445;-75
2021/08/21 05:13:22;;;;;;;5.90;5.30;;;15.50;99.90;;;;;;4961071;28;20448;-76
2021/08/21 05:15:49;;;;;;;6.47;5.43;;;15.50;99.90;;;;;;4972541;28;20445;-77
2021/08/21 05:18:23;;;;;;;5.83;5.23;;;15.50;99.90;;;;;;4971864;28;20447;-75
2021/08/21 05:20:52;;;;;;;5.93;5.43;;;15.60;99.90;;;;;;4970268;28;20872;-76
2021/08/21 05:23:19;;;;;;;6.00;5.10;;;15.60;99.90;;;;;;4963521;28;20548;-75
2021/08/21 05:25:48;;;;;;;5.70;5.13;;;15.70;99.90;;;;;;4955084;28;22595;-75
2021/08/21 05:28:17;;;;;;;5.30;4.80;;;15.70;99.90;;;;;;4955239;28;21066;-76
2021/08/21 05:30:45;;;;;;;6.10;5.07;;;15.70;99.90;;;;;;4935886;29;20466;-75
2021/08/21 05:33:13;;;;;;;9.03;4.87;;;15.80;99.90;;;;;;4941860;28;20981;-75
2021/08/21 05:35:41;;;;;;;6.07;5.30;;;15.80;99.90;;;;;;4947276;28;20484;-75
2021/08/21 05:38:08;;;;;;;8.03;4.50;;;15.90;99.90;;;;;;4964290;28;20454;-75
2021/08/21 05:40:36;;;;;;;6.00;5.40;;;15.90;99.90;;;;;;4954561;28;21103;-76
2021/08/21 05:43:04;;;;;;;5.73;5.07;;;16.00;99.90;;;;;;4946554;28;20485;-75
2021/08/21 05:45:32;;;;;;;7.27;4.63;;;16.00;99.90;;;;;;4969990;28;20445;-74
2021/08/21 05:47:59;;;;;;;4.93;4.53;;;16.10;99.90;;;;;;4952836;28;20843;-74
2021/08/21 05:50:26;;;;;;;5.20;4.70;;;16.20;99.90;;;;;;4956949;28;20895;-75
2021/08/21 05:52:53;;;;;;;4.93;4.53;;;16.30;99.90;;;;;;4971016;28;20960;-74
2021/08/21 05:55:20;;;;;;;7.43;4.80;;;16.40;99.90;;;;;;4965236;28;20464;-74
2021/08/21 05:57:47;;;;;;;7.50;4.13;;;16.40;99.90;;;;;;4969794;28;20461;-73
2021/08/21 06:00:15;;;;;;;3.87;3.57;;;16.60;99.90;;;;;;4971749;28;20471;-76
2021/08/21 06:02:44;;;;;;;4.43;4.07;;;16.60;99.90;;;;;;4953660;28;21821;-73
2021/08/21 06:05:12;;;;;;;4.60;4.10;;;16.70;99.90;;;;;;4959997;28;20456;-74
2021/08/21 06:07:39;;;;;;;4.20;3.60;;;16.80;99.90;;;;;;4966896;28;20477;-75
2021/08/21 06:10:07;;;;;;;4.70;4.07;;;16.80;99.90;;;;;;4956300;28;20481;-75
2021/08/21 06:12:34;;;;;;;4.20;3.80;;;16.90;99.90;;;;;;4971872;28;20463;-75
2021/08/21 06:15:01;;;;;;;4.80;4.40;;;17.00;99.90;;;;;;4964594;28;20435;-74
2021/08/21 06:17:28;;;;;;;12.00;4.40;;;17.10;99.90;;;;;;4958961;28;20464;-73
2021/08/21 06:19:57;;;;;;;5.10;4.37;;;17.10;99.90;;;;;;4963672;28;20417;-75
2021/08/21 06:22:24;;;;;;;4.93;4.53;;;17.20;99.90;;;;;;4975948;28;20877;-75
2021/08/21 06:24:51;;;;;;;4.93;4.53;;;17.20;99.90;;;;;;4961525;28;20468;-75
2021/08/21 06:27:18;;;;;;;5.00;4.50;;;17.30;99.90;;;;;;4961387;28;20412;-75
2021/08/21 06:29:45;;;;;;;4.43;4.03;;;17.30;99.90;;;;;;4964535;28;20485;-74
2021/08/21 06:32:12;;;;;;;4.70;4.20;;;17.30;99.90;;;;;;4968285;28;20440;-74
2021/08/21 06:34:39;;;;;;;4.80;4.00;;;17.40;99.90;;;;;;4970551;28;20469;-75
2021/08/21 06:37:08;;;;;;;4.90;4.50;;;17.40;99.90;;;;;;4964229;28;20467;-75
2021/08/21 06:39:35;;;;;;;4.73;3.70;;;17.40;99.90;;;;;;4958250;28;20999;-73
2021/08/21 06:42:03;;;;;;;4.20;3.70;;;17.50;99.90;;;;;;4952771;28;21877;-74
2021/08/21 06:44:30;;;;;;;5.00;4.50;;;17.50;99.90;;;;;;4969563;28;20658;-74
2021/08/21 06:46:57;;;;;;;4.57;4.17;;;17.50;99.90;;;;;;4968544;28;20510;-74
2021/08/21 06:49:24;;;;;;;4.27;3.87;;;17.60;99.90;;;;;;4971012;28;20473;-74
2021/08/21 06:51:51;;;;;;;3.67;3.37;;;17.60;99.90;;;;;;4967861;28;20479;-74
2021/08/21 06:54:19;;;;;;;5.57;4.07;;;17.70;99.90;;;;;;4960005;28;20436;-75
2021/08/21 06:56:46;;;;;;;4.33;3.60;;;17.80;99.90;;;;;;4942981;28;20435;-77
2021/08/21 06:59:13;;;;;;;6.50;3.80;;;17.90;99.90;;;;;;4952652;28;20438;-77
2021/08/21 07:01:40;;;;;;;4.70;3.70;;;18.00;99.90;;;;;;4975171;28;20755;-77
2021/08/21 07:04:08;;;;;;;4.50;3.73;;;18.10;99.90;;;;;;4966490;28;20446;-76
2021/08/21 07:06:34;;;;;;;4.63;3.00;;;18.20;99.90;;;;;;4962608;28;20457;-74
2021/08/21 07:09:01;;;;;;;3.53;3.23;;;18.40;99.90;;;;;;4965373;28;20488;-73
2021/08/21 07:11:29;;;;;;;6.13;3.40;;;18.60;99.90;;;;;;4961581;28;20481;-73
2021/08/21 07:13:56;;;;;;;3.57;3.27;;;18.70;99.90;;;;;;4956773;28;20461;-73
2021/08/21 07:16:23;;;;;;;3.90;3.00;;;18.80;99.90;;;;;;4973579;28;20866;-73
2021/08/21 07:18:51;;;;;;;4.87;3.10;;;19.00;99.90;;;;;;4972218;28;20972;-73
2021/08/21 07:21:18;;;;;;;4.67;3.00;;;19.10;99.90;;;;;;4973778;28;20515;-73
2021/08/21 07:23:45;;;;;;;3.07;2.77;;;19.30;99.90;;;;;;4957463;28;20465;-73
2021/08/21 07:26:12;;;;;;;3.57;3.27;;;19.40;99.90;;;;;;4941784;28;20442;-73
2021/08/21 07:28:40;;;;;;;5.40;3.20;;;19.60;99.90;;;;;;4962139;28;20488;-73
2021/08/21 07:31:07;;;;;;;3.73;3.30;;;19.70;99.90;;;;;;4958659;28;20482;-73
2021/08/21 07:33:34;;;;;;;3.90;2.90;;;19.90;99.90;;;;;;4959582;28;20453;-73
2021/08/21 07:36:01;;;;;;;6.20;3.70;;;20.10;99.90;;;;;;4958276;28;20470;-76
2021/08/21 07:38:27;;;;;;;4.40;2.93;;;20.20;99.90;;;;;;4959391;28;20959;-78
2021/08/21 07:40:55;;;;;;;4.30;3.50;;;20.30;99.90;;;;;;4965672;28;20456;-77
2021/08/21 07:43:21;;;;;;;3.40;3.00;;;20.40;99.90;;;;;;4959791;28;20565;-77
2021/08/21 07:45:50;;;;;;;5.63;2.63;;;20.60;99.90;;;;;;4963848;28;20457;-79
2021/08/21 07:48:17;;;;;;;3.63;3.33;;;20.70;99.90;;;;;;4971345;28;20488;-77
2021/08/21 07:50:45;;;;;;;3.80;3.07;;;20.80;99.90;;;;;;4965259;28;20847;-75
2021/08/21 07:53:13;;;;;;;3.00;2.40;;;20.90;99.90;;;;;;4958840;28;20453;-76
2021/08/21 07:55:39;;;;;;;4.03;3.23;;;21.00;99.90;;;;;;4962706;28;20467;-75
2021/08/21 07:58:07;;;;;;;3.17;2.93;;;21.10;99.90;;;;;;4957406;28;20794;-76
2021/08/21 08:00:34;;;;;;;2.77;2.57;;;21.20;99.90;;;;;;4942331;28;20476;-77
2021/08/21 08:03:02;;;;;;;3.50;2.70;;;21.30;99.90;;;;;;4960061;28;20434;-76
2021/08/21 08:05:29;;;;;;;2.60;2.40;;;21.40;99.90;;;;;;4950600;28;20819;-76
2021/08/21 08:07:56;;;;;;;3.57;2.37;;;21.50;99.90;;;;;;4957992;28;20457;-76
2021/08/21 08:10:23;;;;;;;2.70;2.50;;;21.60;99.90;;;;;;4951944;28;20481;-76
2021/08/21 08:12:50;;;;;;;2.57;2.37;;;21.70;99.90;;;;;;4963352;28;20464;-75
2021/08/21 08:15:18;;;;;;;2.70;2.40;;;21.80;99.90;;;;;;4965820;28;20978;-76
2021/08/21 08:17:45;;;;;;;2.80;2.10;;;21.80;99.90;;;;;;4956733;28;20460;-75
2021/08/21 08:20:13;;;;;;;2.67;2.47;;;21.90;99.90;;;;;;4975049;28;20463;-76
2021/08/21 08:22:41;;;;;;;2.00;1.90;;;21.90;99.90;;;;;;4961017;28;20460;-77
2021/08/21 08:25:09;;;;;;;2.40;2.20;;;22.00;99.90;;;;;;4959461;28;20927;-76
2021/08/21 08:27:37;;;;;;;2.17;1.97;;;22.20;99.90;;;;;;4966020;28;20441;-76
2021/08/21 08:30:05;;;;;;;3.97;3.57;;;22.30;99.90;;;;;;4960151;28;20495;-75
2021/08/21 08:32:32;;;;;;;3.43;2.93;;;22.40;99.90;;;;;;4953790;28;20939;-77
2021/08/21 08:35:00;;;;;;;2.93;2.23;;;22.40;99.90;;;;;;4970169;28;20540;-76
2021/08/21 08:37:28;;;;;;;4.40;2.90;;;22.60;99.90;;;;;;4954621;28;20460;-77
2021/08/21 08:39:55;;;;;;;4.00;2.60;;;22.70;99.90;;;;;;4958933;28;20483;-76
2021/08/21 08:42:23;;;;;;;2.83;2.53;;;22.80;99.90;;;;;;4962519;28;20865;-76
2021/08/21 08:44:50;;;;;;;3.30;2.27;;;22.90;99.90;;;;;;4956198;28;20465;-75
2021/08/21 08:47:18;;;;;;;2.50;2.30;;;23.10;99.90;;;;;;4970003;28;20531;-76
2021/08/21 08:49:47;;;;;;;3.50;3.20;;;23.20;99.90;;;;;;4950001;28;20556;-75
2021/08/21 08:52:14;;;;;;;2.90;2.70;;;23.30;99.90;;;;;;4939059;28;20472;-76
2021/08/21 08:54:42;;;;;;;3.70;3.30;;;23.40;99.90;;;;;;4962782;28;20458;-76
2021/08/21 08:57:09;;;;;;;3.40;2.90;;;23.50;99.90;;;;;;4953734;28;20450;-76
2021/08/21 08:59:36;;;;;;;3.30;3.00;;;23.50;99.90;;;;;;4956246;28;20472;-75
2021/08/21 09:02:03;;;;;;;3.70;3.40;;;23.50;99.90;;;;;;4959898;28;22244;-77
2021/08/21 09:04:30;;;;;;;4.27;3.87;;;23.60;99.90;;;;;;4959035;28;20433;-77
2021/08/21 09:06:57;;;;;;;3.47;3.17;;;23.60;99.90;;;;;;4953569;28;22225;-75
2021/08/21 09:09:25;;;;;;;4.67;3.27;;;23.70;99.90;;;;;;4956435;28;20484;-75
2021/08/21 09:11:55;;;;;;;3.43;2.87;;;23.70;99.90;;;;;;4938994;28;20504;-76
2021/08/21 09:14:27;;;;;;;4.03;3.73;;;23.70;99.90;;;;;;4931598;28;20856;-76
2021/08/21 09:17:13;;;;;;;3.07;2.60;;;23.70;99.90;;;;;;4940446;28;20472;-77
2021/08/21 09:19:40;;;;;;;4.27;3.97;;;23.80;99.90;;;;;;4959258;28;20441;-77
2021/08/21 09:22:10;;;;;;;5.73;4.27;;;23.80;99.90;;;;;;4957369;28;20464;-78
2021/08/21 09:24:38;;;;;;;3.33;3.03;;;23.70;99.90;;;;;;4940277;28;20468;-76
2021/08/21 09:27:22;;;;;;;4.87;3.37;;;23.60;99.90;;;;;;4938419;28;20458;-77
2021/08/21 09:30:07;;;;;;;4.40;3.70;;;23.60;99.90;;;;;;4953416;28;20481;-76
2021/08/21 09:32:34;;;;;;;3.30;3.00;;;23.70;99.90;;;;;;4962497;28;20466;-77
2021/08/21 09:35:03;;;;;;;4.33;3.20;;;23.60;99.90;;;;;;4958675;28;20805;-76
2021/08/21 09:37:44;;;;;;;3.33;3.03;;;23.50;99.90;;;;;;4963450;28;20465;-76
2021/08/21 09:40:26;;;;;;;2.90;2.57;;;23.50;99.90;;;;;;4955955;28;20481;-76
2021/08/21 09:42:54;;;;;;;3.50;2.37;;;23.60;99.90;;;;;;4958909;28;20824;-77
2021/08/21 09:45:22;;;;;;;4.13;2.87;;;23.50;99.90;;;;;;4957696;28;20457;-76
2021/08/21 09:47:49;;;;;;;4.60;3.10;;;23.60;99.90;;;;;;4963828;28;20457;-77
2021/08/21 09:50:18;;;;;;;4.00;2.70;;;23.60;99.90;;;;;;4974542;28;20492;-76
2021/08/21 09:52:47;;;;;;;2.87;2.67;;;23.60;99.90;;;;;;4968301;28;20461;-76
2021/08/21 09:55:19;;;;;;;2.83;2.63;;;23.70;99.90;;;;;;4961210;28;20461;-76
2021/08/21 09:58:00;;;;;;;3.60;2.43;;;23.60;99.90;;;;;;4957945;28;20469;-76
2021/08/21 10:00:27;;;;;;;2.73;2.23;;;23.70;99.90;;;;;;4967499;28;20476;-78
2021/08/21 10:02:55;;;;;;;5.00;2.63;;;23.70;99.90;;;;;;4956242;28;20455;-78
2021/08/21 10:05:23;;;;;;;4.13;2.77;;;23.70;99.90;;;;;;4958194;28;20513;-77
2021/08/21 10:07:54;;;;;;;4.10;2.67;;;23.70;99.90;;;;;;4955470;28;20548;-74
2021/08/21 10:10:23;;;;;;;2.50;2.30;;;23.70;99.90;;;;;;4971366;28;20547;-74
2021/08/21 10:12:54;;;;;;;3.50;2.90;;;23.70;99.90;;;;;;4973722;28;20799;-73
2021/08/21 10:15:23;;;;;;;2.63;2.43;;;23.70;99.90;;;;;;4971044;28;20468;-73
2021/08/21 10:17:50;;;;;;;3.47;2.97;;;23.70;99.90;;;;;;4956573;28;20515;-74
2021/08/21 10:20:18;;;;;;;3.47;2.83;;;23.80;99.90;;;;;;4958565;28;20870;-73
2021/08/21 10:22:46;;;;;;;3.83;2.70;;;23.70;99.90;;;;;;4955713;28;20521;-73
2021/08/21 10:25:13;;;;;;;2.90;2.50;;;23.80;99.90;;;;;;4968177;28;20444;-73
2021/08/21 10:27:45;;;;;;;3.17;2.70;;;23.80;99.90;;;;;;4964272;28;20462;-73
2021/08/21 10:30:17;;;;;;;3.47;2.70;;;23.90;99.90;;;;;;4957009;28;20500;-72
2021/08/21 10:32:57;;;;;;;2.87;2.57;;;23.90;99.90;;;;;;4959352;28;20513;-73
2021/08/21 10:35:42;;;;;;;2.93;2.40;;;23.90;99.90;;;;;;4970020;28;20444;-73
2021/08/21 10:38:40;;;;;;;3.13;2.80;;;23.90;99.90;;;;;;4952693;28;20942;-74
2021/08/21 10:41:32;;;;;;;2.63;2.40;;;23.90;99.90;;;;;;4955036;28;20803;-72
2021/08/21 10:43:59;;;;;;;2.93;2.63;;;24.00;99.90;;;;;;4957175;28;20481;-73
2021/08/21 10:46:56;;;;;;;3.70;3.40;;;24.10;99.90;;;;;;4956781;28;20452;-73
2021/08/21 10:49:43;;;;;;;3.10;2.80;;;24.00;99.90;;;;;;4950761;28;20499;-73
2021/08/21 10:52:40;;;;;;;2.90;2.70;;;24.10;99.90;;;;;;4954344;28;20469;-72
2021/08/21 10:55:13;;;;;;;3.90;3.10;;;24.20;99.90;;;;;;4950298;28;20467;-73
2021/08/21 10:57:56;;;;;;;2.90;2.70;;;24.10;99.90;;;;;;4959786;28;20537;-74
2021/08/21 11:00:52;;;;;;;3.43;3.13;;;24.20;99.90;;;;;;4966730;28;20487;-72
2021/08/21 11:03:42;;;;;;;4.37;3.13;;;24.20;99.90;;;;;;4958195;28;20477;-73
2021/08/21 11:06:11;;;;;;;3.00;2.77;;;24.20;99.90;;;;;;4957269;28;20465;-73
2021/08/21 11:08:55;;;;;;;4.57;2.70;;;24.20;99.90;;;;;;4957749;28;20944;-73
2021/08/21 11:11:29;;;;;;;4.83;2.83;;;24.30;99.90;;;;;;4970817;28;20479;-73
2021/08/21 11:13:59;;;;;;;3.77;2.97;;;24.20;99.90;;;;;;4964060;28;21023;-73
2021/08/21 11:16:50;;;;;;;3.47;3.17;;;24.20;99.90;;;;;;4954573;28;20442;-73
2021/08/21 11:19:33;;;;;;;3.10;2.80;;;24.20;99.90;;;;;;4960388;28;20458;-72
2021/08/21 11:22:31;;;;;;;3.90;3.50;;;24.20;99.90;;;;;;4952248;28;20488;-74
2021/08/21 11:25:04;;;;;;;3.33;3.03;;;24.20;99.90;;;;;;4988314;28;20933;-74
2021/08/21 11:27:35;;;;;;;4.90;3.13;;;24.20;99.90;;;;;;4972306;28;20447;-74
2021/08/21 11:30:21;;;;;;;3.80;3.37;;;24.20;99.90;;;;;;4960168;28;20492;-73
2021/08/21 11:32:51;;;;;;;2.60;2.37;;;24.20;99.90;;;;;;4973951;28;20463;-73
2021/08/21 11:35:22;;;;;;;3.00;2.50;;;24.10;99.90;;;;;;4953853;28;20452;-73
2021/08/21 11:37:51;;;;;;;5.03;3.07;;;24.20;99.90;;;;;;4957756;28;20449;-73
2021/08/21 11:40:21;;;;;;;3.37;3.07;;;24.20;99.90;;;;;;4971957;28;20452;-72
2021/08/21 11:42:51;;;;;;;3.80;2.83;;;24.20;99.90;;;;;;4968985;28;20491;-73
2021/08/21 11:45:18;;;;;;;3.53;3.20;;;24.20;99.90;;;;;;4968645;28;20468;-72
2021/08/21 11:47:46;;;;;;;3.53;3.20;;;24.20;99.90;;;;;;4974672;28;20460;-72
2021/08/21 11:50:23;;;;;;;8.57;2.70;;;24.30;99.90;;;;;;4959127;28;20492;-73
2021/08/21 11:52:51;;;;;;;4.20;3.60;;;24.20;99.90;;;;;;4959904;28;20445;-75
2021/08/21 11:55:20;;;;;;;5.10;3.40;;;24.30;99.90;;;;;;4962129;28;20457;-76
2021/08/21 11:57:48;;;;;;;2.90;2.70;;;24.40;99.90;;;;;;4973873;28;20441;-76
2021/08/21 12:00:18;;;;;;;2.60;2.40;;;24.40;99.90;;;;;;4965833;28;20485;-75
2021/08/21 12:02:48;;;;;;;3.50;3.10;;;24.40;99.90;;;;;;4951590;28;21014;-75
2021/08/21 12:05:24;;;;;;;3.30;2.83;;;24.40;99.90;;;;;;4951421;28;20457;-74
2021/08/21 12:07:51;;;;;;;3.50;2.60;;;24.50;99.90;;;;;;4953374;28;20460;-73
2021/08/21 12:10:19;;;;;;;3.00;2.70;;;24.50;99.90;;;;;;4976005;28;20496;-74
2021/08/21 12:12:53;;;;;;;14.00;3.30;;;24.50;99.90;;;;;;4939286;28;20464;-74
2021/08/21 12:15:20;;;;;;;3.20;2.90;;;24.50;99.90;;;;;;4955844;28;20467;-76
2021/08/21 12:17:48;;;;;;;4.63;3.57;;;24.50;99.90;;;;;;4937969;29;20453;-72
2021/08/21 12:20:15;;;;;;;3.70;2.60;;;24.60;99.90;;;;;;4969092;28;20563;-76
